createdAt,value
2018-09-20T00:56:23.957Z,22.8
2018-09-20T00:57:14.169Z,22.8
2018-09-20T00:58:03.090Z,22.8
2018-09-20T00:58:53.941Z,22.8
2018-09-20T00:59:43.757Z,22.8
2018-09-20T01:00:35.026Z,22.8
2018-09-20T01:01:23.865Z,22.8
2018-09-20T01:02:13.907Z,22.8
2018-09-20T01:03:04.622Z,22.8
2018-09-20T01:03:53.727Z,22.8
2018-09-20T01:04:43.869Z,22.8
2018-09-20T01:05:34.194Z,22.8
2018-09-20T01:06:25.100Z,22.8
2018-09-20T01:07:14.081Z,22.8
2018-09-20T01:08:04.697Z,22.8
2018-09-20T01:08:54.397Z,22.8
2018-09-20T01:09:44.466Z,22.8
2018-09-20T01:10:34.832Z,22.8
2018-09-20T01:11:24.292Z,22.8
2018-09-20T01:12:14.946Z,22.8
2018-09-20T01:13:05.533Z,22.8
2018-09-20T01:13:54.507Z,22.8
2018-09-20T01:14:45.464Z,22.8
2018-09-20T01:15:35.160Z,22.8
2018-09-20T01:16:24.697Z,22.8
2018-09-20T01:17:15.329Z,22.8
2018-09-20T01:18:05.689Z,22.8
2018-09-20T01:18:54.601Z,22.8
2018-09-20T01:19:44.709Z,22.8
2018-09-20T01:20:35.285Z,22.8
2018-09-20T01:21:25.443Z,22.9
2018-09-20T01:22:14.876Z,22.8
2018-09-20T01:23:04.380Z,22.8
2018-09-20T01:23:54.754Z,22.8
2018-09-20T01:24:45.362Z,22.8
2018-09-20T01:25:34.670Z,22.9
2018-09-20T01:26:25.043Z,22.8
2018-09-20T01:27:15.573Z,22.8
2018-09-20T01:28:05.224Z,22.8
2018-09-20T01:28:55.758Z,22.8
2018-09-20T01:29:46.028Z,22.8
2018-09-20T01:30:36.012Z,22.8
2018-09-20T01:31:26.458Z,22.8
2018-09-20T01:32:16.536Z,22.8
2018-09-20T01:33:05.506Z,22.8
2018-09-20T01:33:56.646Z,22.8
2018-09-20T01:34:46.148Z,22.8
2018-09-20T01:35:38.081Z,22.8
2018-09-20T01:36:26.105Z,22.8
2018-09-20T01:37:17.083Z,22.8
2018-09-20T01:38:06.111Z,22.8
2018-09-20T01:38:55.867Z,22.8
2018-09-20T01:39:46.469Z,22.8
2018-09-20T01:40:36.793Z,22.8
2018-09-20T01:41:25.843Z,22.8
2018-09-20T01:42:16.453Z,22.8
2018-09-20T01:43:06.778Z,22.8
2018-09-20T01:43:57.111Z,22.8
2018-09-20T01:44:46.915Z,22.8
2018-09-20T01:45:37.205Z,22.8
2018-09-20T01:46:27.515Z,22.8
2018-09-20T01:47:17.327Z,22.8
2018-09-20T01:48:06.500Z,22.8
2018-09-20T01:48:57.167Z,22.8
2018-09-20T01:49:47.472Z,22.8
2018-09-20T01:50:37.295Z,22.8
2018-09-20T01:51:27.922Z,22.8
2018-09-20T01:52:17.565Z,22.8
2018-09-20T01:53:07.762Z,22.8
2018-09-20T01:53:58.364Z,22.8
2018-09-20T01:54:47.617Z,22.8
2018-09-20T01:55:38.162Z,22.8
2018-09-20T01:56:28.500Z,22.8
2018-09-20T01:57:19.067Z,22.8
2018-09-20T01:58:08.059Z,22.8
2018-09-20T01:58:58.702Z,22.8
2018-09-20T01:59:47.669Z,22.8
2018-09-20T02:00:38.813Z,22.8
2018-09-20T02:01:27.812Z,22.8
2018-09-20T02:02:18.129Z,22.8
2018-09-20T02:03:07.916Z,22.8
2018-09-20T02:03:58.879Z,22.8
2018-09-20T02:04:48.026Z,22.8
2018-09-20T02:05:38.375Z,22.8
2018-09-20T02:06:28.981Z,22.8
2018-09-20T02:07:19.388Z,22.8
2018-09-20T02:08:08.551Z,22.8
2018-09-20T02:08:59.198Z,22.8
2018-09-20T02:09:49.231Z,22.8
2018-09-20T02:10:39.313Z,22.8
2018-09-20T02:11:28.776Z,22.8
2018-09-20T02:12:19.433Z,22.8
2018-09-20T02:13:09.181Z,22.8
2018-09-20T02:13:59.259Z,22.8
2018-09-20T02:14:49.053Z,22.8
2018-09-20T02:15:39.395Z,22.8
2018-09-20T02:16:29.411Z,22.8
2018-09-20T02:17:20.092Z,22.8
2018-09-20T02:18:09.551Z,22.8
2018-09-20T02:18:59.127Z,22.8
2018-09-20T02:19:50.258Z,22.8
2018-09-20T02:20:40.112Z,22.8
2018-09-20T02:21:30.073Z,22.8
2018-09-20T02:22:18.793Z,22.8
2018-09-20T02:23:10.030Z,22.8
2018-09-20T02:23:59.497Z,22.7
2018-09-20T02:24:49.573Z,22.8
2018-09-20T02:25:40.202Z,22.7
2018-09-20T02:26:30.745Z,22.8
2018-09-20T02:27:20.632Z,22.8
2018-09-20T02:28:10.370Z,22.7
2018-09-20T02:29:00.127Z,22.8
2018-09-20T02:29:50.990Z,22.7
2018-09-20T02:30:40.610Z,22.7
2018-09-20T02:31:30.842Z,22.7
2018-09-20T02:32:20.394Z,22.7
2018-09-20T02:33:11.885Z,22.7
2018-09-20T02:34:00.892Z,22.8
2018-09-20T02:34:50.584Z,22.7
2018-09-20T02:35:41.219Z,22.7
2018-09-20T02:36:31.272Z,22.7
2018-09-20T02:37:21.352Z,22.7
2018-09-20T02:38:11.361Z,22.7
2018-09-20T02:39:01.144Z,22.7
2018-09-20T02:39:51.556Z,22.7
2018-09-20T02:40:41.096Z,22.7
2018-09-20T02:41:31.337Z,22.7
2018-09-20T02:42:21.432Z,22.7
2018-09-20T02:43:10.565Z,22.7
2018-09-20T02:44:01.627Z,22.7
2018-09-20T02:44:51.392Z,22.7
2018-09-20T02:45:41.917Z,22.7
2018-09-20T02:46:32.282Z,22.7
2018-09-20T02:47:21.719Z,22.8
2018-09-20T02:48:12.487Z,22.7
2018-09-20T02:49:02.210Z,22.7
2018-09-20T02:49:51.919Z,22.7
2018-09-20T02:50:42.109Z,22.7
2018-09-20T02:51:31.884Z,22.7
2018-09-20T02:52:21.299Z,22.7
2018-09-20T02:53:13.076Z,22.7
2018-09-20T02:54:02.584Z,22.7
2018-09-20T02:54:51.737Z,22.7
2018-09-20T02:55:42.773Z,22.7
2018-09-20T02:56:31.874Z,22.7
2018-09-20T02:57:22.241Z,22.8
2018-09-20T02:58:12.651Z,22.7
2018-09-20T02:59:04.796Z,22.7
2018-09-20T02:59:53.240Z,22.7
2018-09-20T03:00:41.976Z,22.7
2018-09-20T03:01:32.553Z,22.6
2018-09-20T03:02:23.152Z,22.7
2018-09-20T03:03:13.218Z,22.7
2018-09-20T03:04:03.625Z,22.7
2018-09-20T03:04:51.957Z,22.7
2018-09-20T03:05:42.548Z,22.7
2018-09-20T03:06:33.848Z,22.7
2018-09-20T03:07:23.259Z,22.7
2018-09-20T03:08:13.601Z,22.6
2018-09-20T03:09:02.222Z,22.7
2018-09-20T03:09:54.091Z,22.7
2018-09-20T03:10:43.227Z,22.7
2018-09-20T03:11:34.179Z,22.6
2018-09-20T03:12:23.078Z,22.7
2018-09-20T03:13:16.017Z,22.6
2018-09-20T03:14:03.519Z,22.7
2018-09-20T03:14:53.914Z,22.6
2018-09-20T03:15:43.657Z,22.7
2018-09-20T03:16:34.247Z,22.6
2018-09-20T03:17:24.612Z,22.7
2018-09-20T03:18:13.802Z,22.6
2018-09-20T03:19:05.060Z,22.6
2018-09-20T03:19:54.789Z,22.6
2018-09-20T03:20:44.499Z,22.7
2018-09-20T03:21:34.361Z,22.6
2018-09-20T03:22:23.784Z,22.7
2018-09-20T03:23:14.467Z,22.8
2018-09-20T03:24:04.849Z,22.6
2018-09-20T03:24:54.921Z,22.6
2018-09-20T03:25:45.534Z,22.6
2018-09-20T03:26:34.699Z,22.6
2018-09-20T03:27:24.491Z,22.6
2018-09-20T03:28:15.454Z,22.6
2018-09-20T03:29:04.616Z,22.6
2018-09-20T03:29:54.666Z,22.6
2018-09-20T03:30:49.738Z,22.6
2018-09-20T03:31:35.744Z,22.6
2018-09-20T03:32:25.604Z,22.7
2018-09-20T03:33:15.274Z,22.6
2018-09-20T03:34:05.265Z,22.6
2018-09-20T03:34:55.476Z,22.6
2018-09-20T03:35:46.769Z,22.6
2018-09-20T03:36:35.723Z,22.7
2018-09-20T03:37:25.865Z,22.6
2018-09-20T03:38:15.304Z,22.6
2018-09-20T03:39:05.998Z,22.6
2018-09-20T03:39:55.488Z,22.7
2018-09-20T03:40:46.311Z,22.6
2018-09-20T03:41:35.828Z,22.6
2018-09-20T03:42:25.881Z,22.6
2018-09-20T03:43:15.376Z,22.6
2018-09-20T03:44:05.018Z,22.6
2018-09-20T03:44:55.815Z,22.6
2018-09-20T03:45:46.178Z,22.6
2018-09-20T03:46:36.045Z,22.6
2018-09-20T03:47:26.368Z,22.6
2018-09-20T03:48:15.130Z,22.7
2018-09-20T03:49:03.980Z,22.7
2018-09-20T03:49:56.267Z,22.6
2018-09-20T03:50:45.040Z,22.6
2018-09-20T03:51:36.120Z,22.6
2018-09-20T03:52:25.520Z,22.6
2018-09-20T03:53:15.251Z,22.6
2018-09-20T03:54:05.685Z,22.6
2018-09-20T03:54:56.634Z,22.6
2018-09-20T03:55:47.497Z,22.6
2018-09-20T03:56:37.770Z,22.5
2018-09-20T03:57:26.480Z,22.6
2018-09-20T03:58:17.337Z,22.6
2018-09-20T03:59:06.056Z,22.6
2018-09-20T03:59:57.244Z,22.6
2018-09-20T04:00:46.779Z,22.6
2018-09-20T04:01:37.772Z,22.5
2018-09-20T04:02:27.676Z,22.6
2018-09-20T04:03:17.517Z,22.6
2018-09-20T04:04:07.600Z,22.6
2018-09-20T04:04:56.763Z,22.6
2018-09-20T04:05:47.449Z,22.6
2018-09-20T04:06:38.331Z,22.6
2018-09-20T04:07:28.262Z,22.6
2018-09-20T04:08:18.084Z,22.6
2018-09-20T04:09:07.317Z,22.6
2018-09-20T04:09:59.318Z,22.5
2018-09-20T04:10:47.989Z,22.5
2018-09-20T04:11:38.069Z,22.5
2018-09-20T04:12:28.159Z,22.5
2018-09-20T04:13:18.742Z,22.5
2018-09-20T04:14:08.223Z,22.5
2018-09-20T04:14:58.689Z,22.5
2018-09-20T04:15:48.705Z,22.7
2018-09-20T04:16:38.970Z,22.5
2018-09-20T04:17:28.765Z,22.6
2018-09-20T04:18:18.521Z,22.5
2018-09-20T04:19:08.585Z,22.6
2018-09-20T04:19:58.422Z,22.6
2018-09-20T04:20:49.047Z,22.5
2018-09-20T04:21:38.252Z,22.6
2018-09-20T04:22:28.033Z,22.5
2018-09-20T04:23:19.681Z,22.5
2018-09-20T04:24:08.971Z,22.5
2018-09-20T04:24:59.902Z,22.5
2018-09-20T04:25:49.144Z,22.5
2018-09-20T04:26:38.348Z,22.6
2018-09-20T04:27:29.500Z,22.5
2018-09-20T04:28:18.162Z,22.5
2018-09-20T04:29:09.342Z,22.5
2018-09-20T04:29:59.804Z,22.5
2018-09-20T04:30:48.987Z,22.5
2018-09-20T04:31:40.287Z,22.5
2018-09-20T04:32:29.999Z,22.5
2018-09-20T04:33:20.611Z,22.5
2018-09-20T04:34:09.229Z,22.5
2018-09-20T04:35:00.168Z,22.5
2018-09-20T04:35:50.575Z,22.5
2018-09-20T04:36:39.692Z,22.4
2018-09-20T04:37:30.392Z,22.6
2018-09-20T04:38:20.929Z,22.6
2018-09-20T04:39:10.686Z,22.5
2018-09-20T04:40:00.176Z,22.5
2018-09-20T04:40:49.903Z,22.4
2018-09-20T04:41:40.271Z,22.4
2018-09-20T04:42:30.941Z,22.5
2018-09-20T04:43:20.984Z,22.5
2018-09-20T04:44:09.908Z,22.4
2018-09-20T04:44:59.716Z,22.5
2018-09-20T04:45:51.331Z,22.4
2018-09-20T04:46:40.186Z,22.4
2018-09-20T04:47:31.310Z,22.4
2018-09-20T04:48:20.916Z,22.4
2018-09-20T04:49:10.300Z,22.4
2018-09-20T04:50:01.734Z,22.4
2018-09-20T04:50:50.650Z,22.4
2018-09-20T04:51:41.373Z,22.4
2018-09-20T04:52:31.613Z,22.4
2018-09-20T04:53:23.097Z,22.4
2018-09-20T04:54:11.276Z,22.5
2018-09-20T04:55:00.718Z,22.4
2018-09-20T04:55:51.355Z,22.4
2018-09-20T04:56:41.988Z,22.4
2018-09-20T04:57:31.247Z,22.4
2018-09-20T04:58:21.718Z,22.5
2018-09-20T04:59:12.159Z,22.4
2018-09-20T05:00:02.799Z,22.4
2018-09-20T05:00:52.298Z,22.4
2018-09-20T05:01:42.067Z,22.5
2018-09-20T05:02:31.270Z,22.4
2018-09-20T05:03:23.030Z,22.4
2018-09-20T05:04:11.700Z,22.4
2018-09-20T05:05:02.053Z,22.5
2018-09-20T05:05:52.093Z,22.5
2018-09-20T05:06:42.118Z,22.5
2018-09-20T05:07:32.177Z,22.4
2018-09-20T05:25:28.555Z,22.3
2018-09-20T05:26:18.313Z,22.3
2018-09-20T05:27:08.295Z,22.3
2018-09-20T05:27:58.101Z,22.3
2018-09-20T05:28:48.159Z,22.3
2018-09-20T05:29:38.318Z,22.3
2018-09-20T05:30:28.126Z,22.3
2018-09-20T05:31:18.075Z,22.3
2018-09-20T05:32:08.488Z,22.3
2018-09-20T05:32:57.698Z,22.3
2018-09-20T05:33:48.236Z,22.2
2018-09-20T05:34:38.147Z,22.3
2018-09-20T05:35:30.841Z,22.3
2018-09-20T05:36:18.425Z,22.3
2018-09-20T05:37:09.462Z,22.3
2018-09-20T05:37:58.893Z,22.3
2018-09-20T05:38:47.838Z,22.3
2018-09-20T05:39:39.583Z,22.3
2018-09-20T05:40:28.527Z,22.3
2018-09-20T05:41:19.157Z,22.3
2018-09-20T05:42:08.905Z,22.3
2018-09-20T05:42:58.955Z,22.3
2018-09-20T05:43:49.697Z,22.3
2018-09-20T05:44:39.923Z,22.3
2018-09-20T05:45:28.922Z,22.3
2018-09-20T05:46:19.954Z,22.3
2018-09-20T05:47:09.625Z,22.2
2018-09-20T05:47:59.345Z,22.3
2018-09-20T05:48:49.505Z,22.3
2018-09-20T05:49:39.005Z,22.2
2018-09-20T05:50:29.332Z,22.3
2018-09-20T05:51:20.049Z,22.2
2018-09-20T05:52:09.739Z,22.3
2018-09-20T05:52:59.744Z,22.3
2018-09-20T05:53:50.302Z,22.3
2018-09-20T05:54:41.095Z,22.3
2018-09-20T05:55:31.335Z,22.2
2018-09-20T05:56:20.417Z,22.3
2018-09-20T05:57:10.354Z,22.3
2018-09-20T05:58:00.769Z,22.3
2018-09-20T05:58:51.105Z,22.3
2018-09-20T05:59:40.563Z,22.3
2018-09-20T06:00:30.653Z,22.3
2018-09-20T06:01:20.866Z,22.3
2018-09-20T06:02:10.383Z,22.3
2018-09-20T06:03:01.119Z,22.3
2018-09-20T06:03:50.803Z,22.3
2018-09-20T06:04:41.023Z,22.3
2018-09-20T06:05:31.302Z,22.3
2018-09-20T06:06:21.308Z,22.3
2018-09-20T06:07:10.796Z,22.3
2018-09-20T06:08:01.453Z,22.3
2018-09-20T06:08:51.551Z,22.3
2018-09-20T06:09:41.534Z,22.3
2018-09-20T06:10:32.146Z,22.3
2018-09-20T06:11:21.454Z,22.3
2018-09-20T06:12:12.078Z,22.3
2018-09-20T06:13:01.224Z,22.3
2018-09-20T06:13:51.423Z,22.3
2018-09-20T06:14:42.233Z,22.3
2018-09-20T06:15:31.402Z,22.3
2018-09-20T06:16:22.121Z,22.3
2018-09-20T06:17:11.878Z,22.3
2018-09-20T06:18:02.218Z,22.3
2018-09-20T06:18:51.979Z,22.3
2018-09-20T06:19:41.693Z,22.3
2018-09-20T06:20:31.433Z,22.3
2018-09-20T06:21:21.802Z,22.3
2018-09-20T06:22:12.270Z,22.3
2018-09-20T06:23:01.988Z,22.3
2018-09-20T06:23:52.559Z,22.4
2018-09-20T06:24:42.684Z,22.3
2018-09-20T06:25:32.290Z,22.3
2018-09-20T06:26:23.042Z,22.3
2018-09-20T06:27:12.890Z,22.4
2018-09-20T06:28:03.227Z,22.3
2018-09-20T06:28:52.727Z,22.3
2018-09-20T06:29:42.642Z,22.4
2018-09-20T06:30:32.622Z,22.4
2018-09-20T06:31:22.948Z,22.4
2018-09-20T06:32:12.755Z,22.3
2018-09-20T06:33:03.077Z,22.4
2018-09-20T06:33:53.364Z,22.4
2018-09-20T06:34:43.068Z,22.4
2018-09-20T06:35:33.572Z,22.4
2018-09-20T06:36:22.769Z,22.4
2018-09-20T06:37:13.677Z,22.4
2018-09-20T06:38:03.711Z,22.4
2018-09-20T06:38:53.719Z,22.4
2018-09-20T06:39:43.572Z,22.5
2018-09-20T06:40:33.985Z,22.4
2018-09-20T06:41:23.706Z,22.4
2018-09-20T06:42:12.732Z,22.4
2018-09-20T06:43:04.037Z,22.4
2018-09-20T06:43:53.559Z,22.4
2018-09-20T06:44:44.203Z,22.4
2018-09-20T06:45:32.746Z,22.4
2018-09-20T06:46:24.673Z,22.4
2018-09-20T06:47:14.643Z,22.4
2018-09-20T06:48:04.213Z,22.4
2018-09-20T06:48:54.591Z,22.4
2018-09-20T06:49:45.071Z,22.4
2018-09-20T06:50:35.510Z,22.4
2018-09-20T06:51:25.303Z,22.4
2018-09-20T06:52:15.115Z,22.4
2018-09-20T06:53:04.611Z,22.4
2018-09-20T06:53:54.583Z,22.5
2018-09-20T06:54:44.303Z,22.4
2018-09-20T06:55:35.049Z,22.4
2018-09-20T06:56:25.195Z,22.4
2018-09-20T06:57:14.251Z,22.4
2018-09-20T06:58:05.456Z,22.5
2018-09-20T06:58:55.015Z,22.5
2018-09-20T06:59:45.030Z,22.4
2018-09-20T07:00:34.481Z,22.4
2018-09-20T07:01:24.805Z,22.5
2018-09-20T07:02:15.003Z,22.5
2018-09-20T07:03:06.648Z,22.4
2018-09-20T07:03:54.244Z,22.4
2018-09-20T07:04:44.578Z,22.4
2018-09-20T07:05:35.851Z,22.5
2018-09-20T07:06:25.353Z,22.5
2018-09-20T07:07:15.588Z,22.5
2018-09-20T07:08:05.762Z,22.5
2018-09-20T07:08:56.071Z,22.5
2018-09-20T07:09:46.323Z,22.5
2018-09-20T07:10:36.142Z,22.5
2018-09-20T07:11:26.491Z,22.5
2018-09-20T07:12:16.345Z,22.6
2018-09-20T07:13:06.285Z,22.4
2018-09-20T07:13:56.782Z,22.5
2018-09-20T07:14:45.922Z,22.5
2018-09-20T07:15:35.445Z,22.6
2018-09-20T07:16:26.137Z,22.6
2018-09-20T07:17:16.732Z,22.6
2018-09-20T07:18:07.517Z,22.5
2018-09-20T07:18:57.173Z,22.6
2018-09-20T07:19:45.832Z,22.5
2018-09-20T07:20:37.009Z,22.5
2018-09-20T07:21:27.067Z,22.6
2018-09-20T07:22:16.729Z,22.5
2018-09-20T07:23:06.249Z,22.6
2018-09-20T07:23:57.438Z,22.6
2018-09-20T07:24:47.022Z,22.6
2018-09-20T07:25:38.373Z,22.6
2018-09-20T07:26:26.707Z,22.6
2018-09-20T07:27:17.701Z,22.6
2018-09-20T07:28:07.171Z,22.6
2018-09-20T07:28:57.201Z,22.6
2018-09-20T07:29:47.913Z,22.6
2018-09-20T07:30:37.895Z,22.6
2018-09-20T07:31:27.001Z,22.6
2018-09-20T07:32:17.438Z,22.5
2018-09-20T07:33:07.531Z,22.6
2018-09-20T07:33:57.804Z,22.6
2018-09-20T07:34:47.953Z,22.6
2018-09-20T07:35:38.255Z,22.6
2018-09-20T07:36:27.831Z,22.6
2018-09-20T07:37:18.303Z,22.6
2018-09-20T07:38:07.491Z,22.6
2018-09-20T07:38:57.416Z,22.5
2018-09-20T07:39:48.208Z,22.6
2018-09-20T07:40:37.544Z,22.5
2018-09-20T07:41:28.396Z,22.6
2018-09-20T07:42:18.741Z,22.6
2018-09-20T07:43:08.483Z,22.5
2018-09-20T07:43:57.773Z,22.6
2018-09-20T07:44:48.912Z,22.6
2018-09-20T07:45:38.444Z,22.6
2018-09-20T07:46:27.925Z,22.6
2018-09-20T07:47:19.278Z,22.6
2018-09-20T07:48:08.333Z,22.6
2018-09-20T07:48:58.935Z,22.6
2018-09-20T07:49:48.278Z,22.5
2018-09-20T07:50:38.782Z,22.6
2018-09-20T07:51:28.849Z,22.6
2018-09-20T07:52:19.452Z,22.5
2018-09-20T07:53:08.702Z,22.5
2018-09-20T07:54:00.289Z,22.5
2018-09-20T07:54:49.455Z,22.6
2018-09-20T07:55:39.512Z,22.6
2018-09-20T07:56:29.344Z,22.6
2018-09-20T07:57:19.725Z,22.6
2018-09-20T07:58:09.364Z,22.6
2018-09-20T07:58:59.082Z,22.6
2018-09-20T07:59:50.314Z,22.6
2018-09-20T08:00:39.354Z,22.6
2018-09-20T08:01:28.919Z,22.6
2018-09-20T08:02:19.675Z,22.6
2018-09-20T08:03:10.694Z,22.6
2018-09-20T08:04:01.405Z,22.6
2018-09-20T08:04:51.211Z,22.6
2018-09-20T08:05:41.251Z,22.6
2018-09-20T08:06:30.619Z,22.6
2018-09-20T08:07:21.956Z,22.7
2018-09-20T08:08:10.473Z,22.6
2018-09-20T08:09:00.456Z,22.6
2018-09-20T08:09:49.686Z,22.6
2018-09-20T08:10:40.224Z,22.6
2018-09-20T08:11:30.644Z,22.6
2018-09-20T08:12:20.740Z,22.6
2018-09-20T08:13:11.815Z,22.6
2018-09-20T08:14:00.822Z,22.6
2018-09-20T08:14:50.394Z,22.6
2018-09-20T08:15:40.764Z,22.6
2018-09-20T08:16:30.265Z,22.6
2018-09-20T08:17:21.328Z,22.6
2018-09-20T08:18:10.568Z,22.6
2018-09-20T08:19:03.906Z,22.7
2018-09-20T08:19:50.438Z,22.6
2018-09-20T08:20:41.160Z,22.7
2018-09-20T08:21:31.993Z,22.6
2018-09-20T08:22:20.900Z,22.6
2018-09-20T08:23:11.215Z,22.6
2018-09-20T08:24:01.760Z,22.6
2018-09-20T08:24:51.399Z,22.6
2018-09-20T08:25:41.841Z,22.6
2018-09-20T08:26:30.903Z,22.6
2018-09-20T08:27:21.649Z,22.6
2018-09-20T08:28:12.450Z,22.7
2018-09-20T08:29:02.317Z,22.6
2018-09-20T08:29:51.782Z,22.7
2018-09-20T08:30:41.217Z,22.7
2018-09-20T08:31:32.444Z,22.6
2018-09-20T08:32:22.579Z,22.6
2018-09-20T08:33:12.279Z,22.6
2018-09-20T08:34:02.561Z,22.6
2018-09-20T08:34:52.407Z,22.7
2018-09-20T08:35:41.919Z,22.7
2018-09-20T08:36:32.632Z,22.7
2018-09-20T08:37:23.185Z,22.7
2018-09-20T08:38:12.682Z,22.8
2018-09-20T08:39:02.222Z,22.7
2018-09-20T08:39:52.458Z,22.7
2018-09-20T08:40:42.840Z,22.7
2018-09-20T08:41:32.589Z,22.7
2018-09-20T08:42:24.140Z,22.6
2018-09-20T08:43:12.209Z,22.7
2018-09-20T08:44:02.930Z,22.7
2018-09-20T08:44:53.321Z,22.7
2018-09-20T08:45:42.960Z,22.7
2018-09-20T08:46:32.399Z,22.7
2018-09-20T08:47:23.321Z,22.7
2018-09-20T08:48:15.154Z,22.7
2018-09-20T08:49:02.979Z,22.7
2018-09-20T08:49:53.379Z,22.7
2018-09-20T08:50:43.514Z,22.7
2018-09-20T08:51:33.508Z,22.7
2018-09-20T08:52:23.947Z,22.7
2018-09-20T08:53:13.321Z,22.7
2018-09-20T08:54:04.236Z,22.7
2018-09-20T08:54:54.460Z,22.7
2018-09-20T08:55:44.000Z,22.7
2018-09-20T08:56:34.427Z,22.7
2018-09-20T08:57:25.071Z,22.7
2018-09-20T08:58:13.922Z,22.8
2018-09-20T08:59:03.943Z,22.8
2018-09-20T08:59:54.061Z,22.7
2018-09-20T09:00:43.293Z,22.7
2018-09-20T09:01:34.135Z,22.7
2018-09-20T09:02:24.082Z,22.7
2018-09-20T09:03:14.562Z,22.8
2018-09-20T09:04:04.293Z,22.7
2018-09-20T09:04:54.391Z,22.7
2018-09-20T09:05:44.826Z,22.7
2018-09-20T09:06:34.507Z,22.8
2018-09-20T09:07:24.882Z,22.8
2018-09-20T09:08:14.655Z,22.8
2018-09-20T09:09:05.262Z,22.8
2018-09-20T09:09:55.422Z,22.8
2018-09-20T09:10:44.858Z,22.7
2018-09-20T09:11:34.982Z,22.8
2018-09-20T09:12:25.242Z,22.7
2018-09-20T09:13:15.557Z,22.8
2018-09-20T09:14:05.339Z,22.8
2018-09-20T09:14:55.403Z,22.8
2018-09-20T09:15:45.507Z,22.8
2018-09-20T09:16:35.637Z,22.8
2018-09-20T09:17:25.366Z,22.8
2018-09-20T09:18:15.971Z,22.8
2018-09-20T09:19:05.209Z,22.8
2018-09-20T09:19:55.886Z,22.8
2018-09-20T09:20:45.659Z,22.8
2018-09-20T09:21:35.105Z,22.8
2018-09-20T09:22:25.754Z,22.8
2018-09-20T09:23:16.109Z,22.8
2018-09-20T09:40:08.688Z,22.8
2018-09-20T09:40:57.166Z,22.8
2018-09-20T09:41:48.763Z,22.8
2018-09-20T09:42:38.056Z,22.8
2018-09-20T09:43:28.755Z,22.8
2018-09-20T09:44:18.842Z,22.8
2018-09-20T09:45:09.363Z,22.8
2018-09-20T09:45:58.562Z,22.8
2018-09-20T09:46:47.897Z,22.8
2018-09-20T09:47:37.875Z,22.8
2018-09-20T09:48:29.095Z,22.8
2018-09-20T09:49:19.112Z,22.8
2018-09-20T09:50:09.148Z,22.8
2018-09-20T09:50:58.773Z,22.8
2018-09-20T09:51:48.733Z,22.8
2018-09-20T09:52:39.677Z,22.8
2018-09-20T09:53:29.759Z,22.8
2018-09-20T09:54:19.926Z,22.8
2018-09-20T09:55:09.903Z,22.8
2018-09-20T09:55:59.069Z,22.8
2018-09-20T09:56:49.713Z,22.8
2018-09-20T09:57:39.738Z,22.8
2018-09-20T09:58:29.536Z,22.8
2018-09-20T09:59:20.147Z,22.9
2018-09-20T10:00:09.972Z,22.8
2018-09-20T10:01:00.059Z,22.8
2018-09-20T10:01:49.222Z,22.8
2018-09-20T10:02:42.801Z,22.8
2018-09-20T10:03:30.213Z,22.9
2018-09-20T10:04:19.761Z,22.8
2018-09-20T10:05:09.797Z,22.8
2018-09-20T10:06:00.497Z,22.8
2018-09-20T10:06:49.987Z,22.9
2018-09-20T10:07:38.597Z,22.8
2018-09-20T10:08:30.569Z,22.8
2018-09-20T10:09:20.699Z,22.8
2018-09-20T10:10:10.804Z,22.8
2018-09-20T10:11:01.079Z,22.8
2018-09-20T10:11:50.862Z,22.8
2018-09-20T10:12:40.048Z,22.8
2018-09-20T10:13:33.237Z,22.9
2018-09-20T10:14:20.534Z,22.9
2018-09-20T10:15:09.513Z,22.9
2018-09-20T10:16:01.411Z,22.8
2018-09-20T10:16:50.695Z,22.9
2018-09-20T10:17:40.721Z,22.9
2018-09-20T10:18:30.786Z,22.8
2018-09-20T10:19:21.953Z,22.8
2018-09-20T10:20:12.268Z,22.9
2018-09-20T10:21:01.846Z,22.8
2018-09-20T10:21:51.091Z,22.9
2018-09-20T10:22:41.953Z,22.8
2018-09-20T10:23:31.170Z,22.9
2018-09-20T10:24:22.146Z,22.9
2018-09-20T10:25:11.888Z,22.9
2018-09-20T10:26:02.017Z,22.8
2018-09-20T10:26:52.025Z,22.8
2018-09-20T10:27:41.785Z,22.8
2018-09-20T10:28:32.428Z,22.8
2018-09-20T10:29:22.245Z,22.8
2018-09-20T10:30:12.261Z,22.9
2018-09-20T10:31:02.470Z,22.9
2018-09-20T10:31:51.887Z,22.9
2018-09-20T10:32:42.508Z,22.9
2018-09-20T10:33:32.236Z,22.8
2018-09-20T10:34:21.711Z,22.9
2018-09-20T10:35:11.610Z,22.9
2018-09-20T10:36:02.200Z,22.9
2018-09-20T10:36:52.728Z,22.9
2018-09-20T10:37:42.840Z,22.9
2018-09-20T10:38:32.914Z,22.9
2018-09-20T10:39:22.115Z,22.9
2018-09-20T10:40:13.003Z,22.9
2018-09-20T10:41:02.178Z,22.8
2018-09-20T10:41:52.557Z,22.8
2018-09-20T10:42:42.910Z,22.9
2018-09-20T10:43:32.989Z,22.9
2018-09-20T10:44:23.612Z,22.9
2018-09-20T10:45:13.439Z,22.9
2018-09-20T10:46:04.009Z,22.9
2018-09-20T10:46:52.985Z,22.9
2018-09-20T10:47:43.929Z,22.9
2018-09-20T10:48:33.070Z,22.9
2018-09-20T10:49:22.889Z,22.9
2018-09-20T10:50:13.261Z,22.9
2018-09-20T10:51:03.889Z,22.9
2018-09-20T10:51:53.939Z,22.9
2018-09-20T10:52:43.665Z,22.9
2018-09-20T10:53:34.306Z,22.9
2018-09-20T10:54:24.469Z,22.9
2018-09-20T10:55:13.845Z,22.9
2018-09-20T10:56:02.801Z,22.9
2018-09-20T10:56:54.337Z,22.9
2018-09-20T10:57:44.021Z,22.9
2018-09-20T10:58:34.084Z,22.9
2018-09-20T10:59:23.874Z,22.9
2018-09-20T11:00:14.908Z,22.9
2018-09-20T11:01:03.961Z,22.9
2018-09-20T11:01:54.399Z,22.9
2018-09-20T11:02:44.811Z,22.9
2018-09-20T11:03:35.735Z,22.9
2018-09-20T11:04:24.822Z,22.9
2018-09-20T11:05:14.906Z,22.9
2018-09-20T11:06:05.508Z,22.9
2018-09-20T11:06:54.174Z,22.9
2018-09-20T11:07:44.559Z,22.9
2018-09-20T11:08:35.461Z,22.9
2018-09-20T11:09:24.938Z,22.9
2018-09-20T11:10:15.087Z,22.9
2018-09-20T11:11:07.283Z,22.9
2018-09-20T11:11:55.435Z,22.9
2018-09-20T11:12:45.986Z,22.9
2018-09-20T11:13:35.285Z,22.9
2018-09-20T11:14:25.298Z,22.9
2018-09-20T11:15:15.640Z,22.9
2018-09-20T11:16:06.103Z,23
2018-09-20T11:16:55.306Z,22.9
2018-09-20T11:18:36.425Z,22.9
2018-09-20T11:19:25.673Z,22.9
2018-09-20T11:20:15.602Z,23
2018-09-20T11:21:05.859Z,23
2018-09-20T11:21:56.512Z,22.9
2018-09-20T11:22:45.966Z,22.9
2018-09-20T11:23:35.717Z,22.9
2018-09-20T11:24:26.365Z,22.9
2018-09-20T11:25:16.690Z,22.9
2018-09-20T11:26:08.187Z,23
2018-09-20T11:26:56.552Z,22.9
2018-09-20T11:27:46.980Z,22.9
2018-09-20T11:28:36.648Z,23
2018-09-20T11:29:27.247Z,22.9
2018-09-20T11:30:16.805Z,22.9
2018-09-20T11:31:07.149Z,23
2018-09-20T11:31:56.934Z,23
2018-09-20T11:32:46.967Z,22.9
2018-09-20T11:33:37.071Z,22.9
2018-09-20T11:34:27.142Z,22.9
2018-09-20T11:35:17.457Z,22.9
2018-09-20T11:36:07.019Z,22.9
2018-09-20T11:36:56.776Z,22.9
2018-09-20T11:37:47.959Z,23
2018-09-20T11:38:37.129Z,22.9
2018-09-20T11:39:26.941Z,22.9
2018-09-20T11:40:16.819Z,23
2018-09-20T11:41:07.364Z,22.9
2018-09-20T11:41:57.827Z,23
2018-09-20T11:42:47.744Z,23
2018-09-20T11:43:38.547Z,23
2018-09-20T11:44:28.225Z,22.9
2018-09-20T11:45:17.776Z,23
2018-09-20T11:46:08.089Z,22.9
2018-09-20T11:46:58.423Z,23
2018-09-20T11:47:48.396Z,22.9
2018-09-20T11:48:37.086Z,23
2018-09-20T16:40:44.320Z,23.4
2018-09-20T16:41:34.630Z,23.4
2018-09-20T16:42:23.638Z,23.4
2018-09-20T16:43:13.140Z,23.4
2018-09-20T16:44:03.835Z,23.3
2018-09-20T16:44:53.746Z,23.4
2018-09-20T16:45:44.713Z,23.4
2018-09-20T16:46:34.687Z,23.4
2018-09-20T16:47:24.498Z,23.4
2018-09-20T16:48:14.875Z,23.3
2018-09-20T16:49:05.209Z,23.3
2018-09-20T16:49:54.442Z,23.3
2018-09-20T16:50:45.058Z,23.3
2018-09-20T16:51:35.083Z,23.3
2018-09-20T16:52:25.165Z,23.3
2018-09-20T16:53:18.142Z,23.3
2018-09-20T16:54:04.536Z,23.3
2018-09-20T16:54:55.117Z,23.3
2018-09-20T16:55:44.335Z,23.3
2018-09-20T16:56:34.947Z,23.3
2018-09-20T16:57:24.672Z,23.3
2018-09-20T16:58:15.595Z,23.3
2018-09-20T16:59:05.909Z,23.3
2018-09-20T16:59:55.750Z,23.3
2018-09-20T17:00:44.693Z,23.3
2018-09-20T17:01:35.975Z,23.3
2018-09-20T17:02:25.432Z,23.3
2018-09-20T17:03:15.724Z,23.3
2018-09-20T17:04:05.480Z,23.3
2018-09-20T17:04:55.285Z,23.3
2018-09-20T17:05:45.647Z,23.3
2018-09-20T17:06:35.771Z,23.3
2018-09-20T17:07:26.247Z,23.3
2018-09-20T17:08:15.801Z,23.3
2018-09-20T17:09:06.111Z,23.3
2018-09-20T17:09:56.496Z,23.3
2018-09-20T17:10:46.927Z,23.3
2018-09-20T17:11:36.209Z,23.3
2018-09-20T17:12:25.988Z,23.3
2018-09-20T17:13:16.765Z,23.3
2018-09-20T17:14:06.375Z,23.3
2018-09-20T17:14:59.790Z,23.3
2018-09-20T17:15:46.437Z,23.3
2018-09-20T17:16:37.497Z,23.3
2018-09-20T17:17:26.269Z,23.3
2018-09-20T17:18:17.207Z,23.3
2018-09-20T17:19:07.270Z,23.3
2018-09-20T17:19:57.701Z,23.3
2018-09-20T17:20:46.256Z,23.3
2018-09-20T17:21:37.444Z,23.2
2018-09-20T17:22:26.935Z,23.2
2018-09-20T17:23:16.951Z,23.2
2018-09-20T17:24:07.933Z,23.2
2018-09-20T17:24:57.331Z,23.2
2018-09-20T17:25:47.440Z,23.2
2018-09-20T17:26:38.009Z,23.2
2018-09-20T17:27:27.537Z,23.2
2018-09-20T17:28:17.083Z,23.2